Upton, NY (11973)

9:04 PM EDT on June 23, 2017 (GMT -0400)
Rolling Hills | | Change Station

Elev 120 ft 40.88 °N, 72.92 °W | Updated 5 seconds ago

Mostly Cloudy
Mostly Cloudy
74.4 °F
Feels Like 73 °F
N
3.0
Wind Variable Wind from SSW
Gusts 6.0 mph

Today
High -- | Low -- °F
--% Chance of Precip.
Yesterday
High -- | Low -- °F
Precip. -- in
Pressure 29.66 in
Visibility 8.0 miles
Clouds Few 4000 ft
Heat Index 73 °F
Dew Point 71 °F
Humidity 90%
Rainfall 0.00 in
Snow Depth Not available.
5:20 AM 8:27 PM
Waning Crescent, 0% visible
METAR KHWV 240056Z AUTO 20013G20KT 8SM FEW040 23/22 A2967 RMK AO2 RAB02E18 SLP044 P0000 T02280217
Pressure 29.66 in
Visibility 8.0 miles
Clouds Few 4000 ft
Heat Index 73 °F
Dew Point 71 °F
Humidity 90%
Rainfall 0.00 in
Snow Depth Not available.
5:20 AM 8:27 PM
Waning Crescent, 0% visible
METAR KHWV 240056Z AUTO 20013G20KT 8SM FEW040 23/22 A2967 RMK AO2 RAB02E18 SLP044 P0000 T02280217

Get Severe Weather Alerts

Thanks for signing up!

Be on the lookout for a verification email in your inbox.

You'll start receiving the daily forecast at 6 AM.

×

10-Day Weather Forecast

Almanac

Astronomy

Jun. 23, 2017 Rise Set
Actual Time
Civil Twilight
Nautical Twilight
Astronomical Twilight
Moon
Length of Visible Light
Length of Day
Tomorrow will be .
, % of the Moon is Illuminated

Today's Extremes

State Highs State Lows

Community

WunderPhotos

Category 6

Welcome to Category 6. This is the collective home for Weather Underground's featured writeups by Dr. Jeff Masters (right), Bob Henson (left), Chris Burt, and other regular contributors.

Nearby

Air Quality

  Air Quality AQ Index Pollutant
Not available.

Snow Depth

Station Depth Elevation

Earthquake Activity

City Distance Mag. Time & Date
Minimum magnitude displayed is 2.5.

Coastal Water Temperatures

Place Temperature

Stations

Nearby Weather Stations

Station Location Temp. Windchill Dew Point Humidity Wind Precip. Elev Updated Type
                   

Watches & Warnings

There are currently no watches in effect.